Time;durP1;ratioP1;P1;durP2;ratioP2;P2;SDS_P1;SDS_P2;PMS_P1;PMS_P2;Temp;Humidity;BMP_temperature;BMP_pressure;BME280_temperature;BME280_humidity;BME280_pressure;Samples;Min_cycle;Max_cycle;Signal;HPM_P1;HPM_P2
2021/04/06 15:42:17;;;;;;;57.50;3.53;;;13.60;1.00;;;;;;5108132;27;20544;-66
2021/04/06 15:44:43;;;;;;;60.27;4.07;;;13.70;1.00;;;;;;5109179;28;20810;-65
2021/04/06 15:47:10;;;;;;;58.33;3.43;;;14.00;1.00;;;;;;5109220;28;20533;-66
2021/04/06 15:49:39;;;;;;;57.37;3.23;;;13.40;1.00;;;;;;5091968;28;20541;-65
2021/04/06 15:52:06;;;;;;;58.30;3.17;;;12.90;1.00;;;;;;5089080;28;20506;-65
2021/04/06 15:54:33;;;;;;;58.87;3.30;;;12.80;1.00;;;;;;5088610;28;20470;-65
2021/04/06 15:57:00;;;;;;;57.43;3.30;;;12.60;1.00;;;;;;5088281;28;20442;-67
2021/04/06 15:59:30;;;;;;;58.13;3.70;;;11.90;1.00;;;;;;5088429;28;20462;-66
2021/04/06 16:01:56;;;;;;;58.50;3.50;;;11.10;1.00;;;;;;5088920;28;20482;-67
2021/04/06 16:04:22;;;;;;;59.90;4.47;;;10.80;1.00;;;;;;5088573;28;20537;-66
2021/04/06 16:06:49;;;;;;;59.80;3.70;;;11.20;1.00;;;;;;5088814;28;20538;-66
2021/04/06 16:09:15;;;;;;;57.67;3.57;;;11.10;1.00;;;;;;5088634;28;20552;-66
2021/04/06 16:11:42;;;;;;;58.67;4.07;;;11.20;1.00;;;;;;5088991;28;20870;-66
2021/04/06 16:14:08;;;;;;;58.57;3.40;;;11.50;1.00;;;;;;5088270;28;20474;-66
2021/04/06 16:16:35;;;;;;;57.47;3.70;;;11.50;1.00;;;;;;5088544;28;20525;-66
2021/04/06 16:19:02;;;;;;;59.50;3.70;;;11.50;1.00;;;;;;5088440;28;20502;-67
2021/04/06 16:21:28;;;;;;;57.37;3.77;;;11.80;1.00;;;;;;5088424;28;20838;-66
2021/04/06 16:24:00;;;;;;;58.60;4.20;;;11.90;1.00;;;;;;5088181;28;20471;-66
2021/04/06 16:26:27;;;;;;;56.97;3.20;;;11.80;1.00;;;;;;5088311;28;20446;-66
2021/04/06 16:28:54;;;;;;;57.60;3.60;;;11.90;1.00;;;;;;5088193;28;20474;-67
2021/04/06 16:31:20;;;;;;;57.37;3.50;;;11.80;1.00;;;;;;5087506;28;20478;-66
2021/04/06 16:33:48;;;;;;;57.60;3.73;;;11.50;1.00;;;;;;5088322;28;20529;-66
2021/04/06 16:36:17;;;;;;;57.67;3.10;;;10.80;1.00;;;;;;5088305;28;20453;-66
2021/04/06 16:38:44;;;;;;;58.57;3.37;;;10.00;1.00;;;;;;5087981;28;20547;-66
2021/04/06 16:41:13;;;;;;;57.27;3.03;;;9.40;1.00;;;;;;5087186;28;20940;-65
2021/04/06 16:43:40;;;;;;;58.00;3.37;;;9.00;1.00;;;;;;5087858;28;20448;-66
2021/04/06 16:46:07;;;;;;;57.20;3.08;;;8.60;1.00;;;;;;5087251;28;20447;-65
2021/04/06 16:48:34;;;;;;;58.30;3.40;;;8.20;1.00;;;;;;5087938;28;20313;-66
2021/04/06 16:51:02;;;;;;;58.63;3.53;;;7.80;1.00;;;;;;5087770;28;20568;-65
2021/04/06 16:53:31;;;;;;;58.47;3.70;;;7.50;1.00;;;;;;5074942;28;20210;-66
2021/04/06 16:55:57;;;;;;;58.25;3.30;;;7.20;1.00;;;;;;5074039;28;20448;-66
2021/04/06 16:58:24;;;;;;;57.27;3.07;;;7.00;1.00;;;;;;5074327;28;20255;-65
2021/04/06 17:00:51;;;;;;;59.13;3.67;;;7.20;1.00;;;;;;5073789;28;20443;-66
2021/04/06 17:03:18;;;;;;;57.10;2.95;;;7.30;1.00;;;;;;5073785;28;20204;-66
2021/04/06 17:05:45;;;;;;;58.58;3.40;;;7.10;1.00;;;;;;5073982;28;20297;-66
2021/04/06 17:08:12;;;;;;;58.00;3.60;;;6.80;1.00;;;;;;5074231;28;20643;-65
2021/04/06 17:10:38;;;;;;;57.25;3.63;;;6.60;1.00;;;;;;5073805;28;20357;-65
2021/04/06 17:13:05;;;;;;;59.80;3.50;;;6.40;1.00;;;;;;5074050;28;20297;-66
2021/04/06 17:15:32;;;;;;;58.72;4.18;;;6.10;1.00;;;;;;5073704;28;20216;-66
2021/04/06 17:17:59;;;;;;;57.38;3.42;;;5.90;1.00;;;;;;5073784;28;20299;-65
2021/04/06 17:20:26;;;;;;;57.30;3.42;;;5.70;1.00;;;;;;5073632;28;20206;-65
2021/04/06 17:22:54;;;;;;;56.58;3.22;;;5.50;1.00;;;;;;5073371;28;20296;-65
2021/04/06 17:25:23;;;;;;;57.50;3.50;;;5.30;1.00;;;;;;5073655;28;20378;-66
2021/04/06 17:27:50;;;;;;;56.78;3.72;;;5.10;1.00;;;;;;5073427;28;20300;-66
2021/04/06 17:30:19;;;;;;;58.50;4.10;;;5.00;1.00;;;;;;5073271;28;20299;-66
2021/04/06 17:32:47;;;;;;;59.72;4.30;;;4.80;1.00;;;;;;5073332;28;20205;-66
2021/04/06 17:35:16;;;;;;;60.00;5.30;;;4.50;1.00;;;;;;5073201;28;20670;-66
2021/04/06 17:37:45;;;;;;;57.53;3.97;;;4.20;1.00;;;;;;5073352;28;20219;-66
2021/04/06 17:40:14;;;;;;;59.13;4.43;;;3.80;1.00;;;;;;5073319;28;20304;-66
2021/04/06 17:42:41;;;;;;;57.13;4.35;;;3.40;1.00;;;;;;5073034;28;20216;-66
2021/04/06 17:45:09;;;;;;;57.15;4.55;;;3.20;1.00;;;;;;5073076;28;20292;-66
2021/04/06 17:47:36;;;;;;;59.45;4.60;;;3.10;1.00;;;;;;5073280;28;20237;-66
2021/04/06 17:50:05;;;;;;;59.92;4.13;;;2.90;1.00;;;;;;5073433;28;20297;-66
2021/04/06 17:52:31;;;;;;;58.88;4.65;;;2.70;1.00;;;;;;5073169;28;20232;-66
2021/04/06 17:54:57;;;;;;;57.45;4.38;;;2.60;1.00;;;;;;5073263;28;20587;-66
2021/04/06 17:57:24;;;;;;;57.65;4.28;;;2.50;1.00;;;;;;5073141;28;20647;-66
2021/04/06 17:59:51;;;;;;;66.45;4.82;;;2.40;1.00;;;;;;5072859;28;20316;-66
2021/04/06 18:02:17;;;;;;;60.60;4.60;;;2.30;1.00;;;;;;5072644;28;20740;-66
2021/04/06 18:04:44;;;;;;;57.40;4.65;;;2.20;1.00;;;;;;5072090;28;20291;-66
2021/04/06 18:07:13;;;;;;;60.95;4.85;;;2.20;1.00;;;;;;5073002;28;20247;-66
2021/04/06 18:09:40;;;;;;;58.45;5.05;;;2.10;1.00;;;;;;5072731;28;20263;-66
2021/04/06 18:12:07;;;;;;;58.63;4.90;;;2.00;1.00;;;;;;5072447;28;20231;-66
2021/04/06 18:14:33;;;;;;;59.47;5.20;;;2.00;1.00;;;;;;5072615;28;20258;-66
2021/04/06 18:17:00;;;;;;;59.85;4.90;;;1.90;1.00;;;;;;5072369;28;20204;-66
2021/04/06 18:19:26;;;;;;;57.47;5.22;;;1.90;1.00;;;;;;5072563;28;20256;-66
2021/04/06 18:21:53;;;;;;;63.40;6.22;;;1.80;1.00;;;;;;5070396;28;20442;-66
2021/04/06 18:24:20;;;;;;;59.20;5.22;;;1.80;1.00;;;;;;5072456;28;20232;-66
2021/04/06 18:26:46;;;;;;;58.95;4.75;;;1.70;1.00;;;;;;5072358;28;20201;-66
2021/04/06 18:29:12;;;;;;;57.80;5.13;;;1.70;1.00;;;;;;5072191;28;20225;-67
2021/04/06 18:31:40;;;;;;;58.78;5.13;;;1.60;1.00;;;;;;5072010;28;20255;-66
2021/04/06 18:34:07;;;;;;;58.60;4.72;;;1.70;1.00;;;;;;5072432;28;20237;-66
2021/04/06 18:36:37;;;;;;;57.97;5.40;;;1.60;1.00;;;;;;5072333;28;20235;-66
2021/04/06 18:39:05;;;;;;;60.38;5.15;;;1.60;1.00;;;;;;5070837;28;20228;-66
2021/04/06 18:41:31;;;;;;;58.30;5.70;;;1.60;1.00;;;;;;5071810;28;20205;-66
2021/04/06 18:43:57;;;;;;;60.20;5.22;;;1.60;1.00;;;;;;5071882;28;20242;-65
2021/04/06 18:46:24;;;;;;;59.70;3.85;;;1.60;1.00;;;;;;5071784;28;20632;-65
2021/04/06 18:48:50;;;;;;;58.53;4.85;;;1.60;1.00;;;;;;5071868;28;20739;-65
2021/04/06 18:51:18;;;;;;;60.38;5.18;;;1.60;1.00;;;;;;5072052;28;20794;-66
2021/04/06 18:53:44;;;;;;;63.03;5.63;;;1.60;1.00;;;;;;5072199;28;20584;-66
2021/04/06 18:56:11;;;;;;;61.47;7.25;;;1.60;1.00;;;;;;5071695;28;20204;-66
2021/04/06 18:58:37;;;;;;;59.45;5.80;;;1.60;1.00;;;;;;5071463;28;20252;-66
2021/04/06 19:01:06;;;;;;;64.07;6.55;;;1.60;1.00;;;;;;5072081;28;20209;-66
2021/04/06 19:03:32;;;;;;;65.97;7.40;;;1.60;1.00;;;;;;5071774;28;20263;-66
2021/04/06 19:05:59;;;;;;;59.13;5.70;;;1.60;1.00;;;;;;5071482;28;20304;-66
2021/04/06 19:08:26;;;;;;;58.53;4.75;;;1.60;1.00;;;;;;5071659;28;20645;-66
2021/04/06 19:10:55;;;;;;;57.38;5.38;;;1.60;1.00;;;;;;5071588;28;20312;-66
2021/04/06 19:13:23;;;;;;;59.65;5.18;;;1.60;1.00;;;;;;5071322;28;20211;-66
2021/04/06 19:15:52;;;;;;;61.28;5.20;;;1.60;1.00;;;;;;5071418;28;20300;-64
2021/04/06 19:18:21;;;;;;;58.03;5.68;;;1.60;1.00;;;;;;5071532;28;20605;-64
2021/04/06 19:20:50;;;;;;;58.25;5.07;;;1.60;1.00;;;;;;5071469;28;20292;-65
2021/04/06 19:23:18;;;;;;;58.85;4.75;;;1.60;1.00;;;;;;5071491;28;20565;-65
2021/04/06 19:25:45;;;;;;;58.08;5.10;;;1.60;1.00;;;;;;5071136;28;20217;-65
2021/04/06 19:28:12;;;;;;;59.28;5.35;;;1.60;1.00;;;;;;5071250;28;20324;-65
2021/04/06 19:30:39;;;;;;;58.67;5.07;;;1.60;1.00;;;;;;5071429;28;20319;-65
2021/04/06 19:33:07;;;;;;;60.40;5.20;;;1.60;1.00;;;;;;5071476;28;20205;-65
2021/04/06 19:35:34;;;;;;;58.10;4.95;;;1.60;1.00;;;;;;5071358;28;20666;-65
2021/04/06 19:38:01;;;;;;;57.58;5.05;;;1.60;1.00;;;;;;5071292;28;20287;-66
2021/04/06 19:40:27;;;;;;;57.92;5.05;;;1.60;1.00;;;;;;5071199;28;20307;-65
2021/04/06 19:42:55;;;;;;;59.15;5.53;;;1.60;1.00;;;;;;5071133;28;20299;-65
2021/04/06 19:45:22;;;;;;;58.05;4.97;;;1.60;1.00;;;;;;5071316;28;20215;-65
2021/04/06 19:47:50;;;;;;;60.35;5.15;;;1.60;1.00;;;;;;5071183;28;20805;-66
2021/04/06 19:50:17;;;;;;;59.90;5.20;;;1.60;1.00;;;;;;5071135;28;20307;-66
2021/04/06 19:52:44;;;;;;;58.00;5.13;;;1.60;1.00;;;;;;5071053;28;20261;-66
2021/04/06 19:55:13;;;;;;;59.25;4.72;;;1.70;1.00;;;;;;5071410;28;20295;-65
2021/04/06 19:57:39;;;;;;;59.17;4.85;;;1.70;1.00;;;;;;5071429;28;20653;-65
2021/04/06 20:00:10;;;;;;;57.28;4.70;;;1.70;1.00;;;;;;5071560;28;20201;-65
2021/04/06 20:02:38;;;;;;;57.30;4.45;;;1.70;1.00;;;;;;5071181;28;20212;-65
2021/04/06 20:05:06;;;;;;;57.67;4.80;;;1.70;1.00;;;;;;5070869;28;20755;-65
2021/04/06 20:07:32;;;;;;;58.33;4.93;;;1.70;1.00;;;;;;5070939;28;20223;-66
2021/04/06 20:09:59;;;;;;;61.13;5.20;;;1.70;1.00;;;;;;5071100;28;20239;-65
2021/04/06 20:12:25;;;;;;;62.20;5.03;;;1.70;1.00;;;;;;5070933;28;20251;-65
2021/04/06 20:14:51;;;;;;;58.28;5.55;;;1.70;1.00;;;;;;5071148;28;20662;-65
2021/04/06 20:17:19;;;;;;;58.00;5.28;;;1.70;1.00;;;;;;5071062;28;20738;-65
2021/04/06 20:19:45;;;;;;;59.65;5.55;;;1.80;1.00;;;;;;5070747;28;20316;-66
2021/04/06 20:22:11;;;;;;;59.00;6.60;;;1.70;1.00;;;;;;5070691;28;20198;-66
2021/04/06 20:24:40;;;;;;;57.58;5.00;;;1.70;1.00;;;;;;5070916;28;20246;-66
2021/04/06 20:27:07;;;;;;;58.58;5.38;;;1.70;1.00;;;;;;5071470;28;20651;-65
2021/04/06 20:29:36;;;;;;;59.20;5.60;;;1.70;1.00;;;;;;5074549;28;20735;-66
2021/04/06 20:32:03;;;;;;;58.72;5.28;;;1.70;1.00;;;;;;5074380;28;20225;-65
2021/04/06 20:34:30;;;;;;;58.00;6.00;;;1.60;1.00;;;;;;5074356;28;20282;-65
2021/04/06 20:36:57;;;;;;;61.35;5.18;;;1.60;1.00;;;;;;5074746;28;20215;-66
2021/04/06 20:39:23;;;;;;;62.83;5.65;;;1.50;1.00;;;;;;5074487;28;20251;-66
2021/04/06 20:41:50;;;;;;;58.22;5.32;;;1.40;1.00;;;;;;5074102;28;20596;-66
2021/04/06 20:44:17;;;;;;;59.22;5.55;;;1.40;1.00;;;;;;5074308;28;20681;-66
2021/04/06 20:46:44;;;;;;;61.30;5.80;;;1.30;1.00;;;;;;5074039;28;20212;-66
2021/04/06 20:49:13;;;;;;;59.75;5.90;;;1.30;1.00;;;;;;5074061;28;20270;-66
2021/04/06 20:51:41;;;;;;;58.75;5.85;;;1.20;1.00;;;;;;5074347;28;20323;-66
2021/04/06 20:54:09;;;;;;;58.13;5.15;;;1.20;1.00;;;;;;5074140;28;20296;-66
2021/04/06 20:56:35;;;;;;;58.05;5.70;;;1.10;1.00;;;;;;5074182;28;20622;-66
2021/04/06 20:59:02;;;;;;;58.22;5.18;;;1.10;1.00;;;;;;5073964;28;20224;-66
2021/04/06 21:01:28;;;;;;;61.80;5.70;;;1.10;1.00;;;;;;5074421;28;20291;-66
2021/04/06 21:03:56;;;;;;;60.10;5.70;;;1.10;1.00;;;;;;5074028;28;20240;-66
2021/04/06 21:06:22;;;;;;;58.30;5.43;;;1.10;1.00;;;;;;5073893;28;20365;-66
2021/04/06 21:08:51;;;;;;;66.13;5.75;;;1.10;1.00;;;;;;5073695;28;20228;-66
2021/04/06 21:11:17;;;;;;;58.67;4.90;;;1.10;1.00;;;;;;5073666;28;20220;-66
2021/04/06 21:13:44;;;;;;;60.60;5.57;;;1.20;1.00;;;;;;5073692;28;20201;-66
2021/04/06 21:16:10;;;;;;;59.55;5.70;;;1.20;1.00;;;;;;5073643;28;20713;-66
2021/04/06 21:18:36;;;;;;;60.38;5.88;;;1.20;1.00;;;;;;5073549;28;20229;-66
2021/04/06 21:21:03;;;;;;;61.05;6.60;;;1.20;1.00;;;;;;5073819;28;20207;-66
2021/04/06 21:23:30;;;;;;;59.40;5.82;;;1.30;1.00;;;;;;5073662;28;20205;-66
2021/04/06 21:25:57;;;;;;;59.28;5.50;;;1.30;1.00;;;;;;5073497;28;20291;-66
2021/04/06 21:28:23;;;;;;;61.50;5.55;;;1.30;1.00;;;;;;5073415;28;20221;-66
2021/04/06 21:30:50;;;;;;;59.15;5.18;;;1.30;1.00;;;;;;5073367;28;20221;-66
2021/04/06 21:33:16;;;;;;;59.53;5.85;;;1.30;1.00;;;;;;5073376;28;20296;-66
2021/04/06 21:35:42;;;;;;;60.25;5.90;;;1.30;1.00;;;;;;5073532;28;20296;-66
2021/04/06 21:38:09;;;;;;;61.92;5.32;;;1.30;1.00;;;;;;5073098;28;20724;-66
2021/04/06 21:40:35;;;;;;;58.33;5.85;;;1.20;1.00;;;;;;5073307;28;20279;-66
2021/04/06 21:43:02;;;;;;;58.00;5.78;;;1.20;1.00;;;;;;5073180;28;20205;-66
2021/04/06 21:45:29;;;;;;;58.85;5.63;;;1.20;1.00;;;;;;5072873;28;20215;-66
2021/04/06 21:47:55;;;;;;;62.10;6.90;;;1.20;1.00;;;;;;5073524;28;20574;-66
2021/04/06 21:50:22;;;;;;;59.38;6.20;;;1.20;1.00;;;;;;5073277;28;20220;-66
2021/04/06 21:52:49;;;;;;;59.20;6.20;;;1.20;1.00;;;;;;5073103;28;20232;-66
2021/04/06 21:55:17;;;;;;;58.30;5.57;;;1.20;1.00;;;;;;5072845;28;20215;-67
2021/04/06 21:57:43;;;;;;;58.38;5.95;;;1.20;1.00;;;;;;5072906;28;20635;-66
2021/04/06 22:00:14;;;;;;;58.67;5.95;;;1.20;1.00;;;;;;5072799;28;20300;-66
2021/04/06 22:02:40;;;;;;;59.38;5.38;;;1.20;1.00;;;;;;5073054;28;20637;-66
2021/04/06 22:05:08;;;;;;;57.85;5.78;;;1.20;1.00;;;;;;5072990;28;20205;-66
2021/04/06 22:07:34;;;;;;;57.97;5.20;;;1.20;1.00;;;;;;5072830;28;20291;-66
2021/04/06 22:10:01;;;;;;;59.42;6.38;;;1.20;1.00;;;;;;5072657;28;20295;-66
2021/04/06 22:12:28;;;;;;;59.38;5.57;;;1.20;1.00;;;;;;5072370;28;20315;-67
2021/04/06 22:14:54;;;;;;;58.30;4.90;;;1.30;1.00;;;;;;5072524;28;20209;-66
2021/04/06 22:17:22;;;;;;;59.13;4.80;;;1.30;1.00;;;;;;5072928;28;20204;-66
2021/04/06 22:19:48;;;;;;;59.55;5.47;;;1.30;1.00;;;;;;5072520;28;20327;-66
2021/04/06 22:22:15;;;;;;;58.50;4.95;;;1.30;1.00;;;;;;5072307;28;20691;-66
2021/04/06 22:24:41;;;;;;;59.05;5.18;;;1.30;1.00;;;;;;5072407;28;20355;-66
2021/04/06 22:27:11;;;;;;;58.80;5.30;;;1.30;1.00;;;;;;5072151;28;20296;-67
2021/04/06 22:29:38;;;;;;;58.40;5.20;;;1.30;1.00;;;;;;5072464;28;20225;-66
2021/04/06 22:32:07;;;;;;;59.72;5.00;;;1.40;1.00;;;;;;5071994;28;20235;-66
2021/04/06 22:34:35;;;;;;;57.67;4.85;;;1.40;1.00;;;;;;5072339;28;20584;-66
2021/04/06 22:37:01;;;;;;;61.60;5.03;;;1.40;1.00;;;;;;5072249;28;20234;-67
2021/04/06 22:39:27;;;;;;;61.10;4.65;;;1.40;1.00;;;;;;5071931;28;20319;-66
2021/04/06 22:41:54;;;;;;;57.88;4.93;;;1.40;1.00;;;;;;5071902;28;20677;-66
2021/04/06 22:44:20;;;;;;;59.00;4.30;;;1.40;1.00;;;;;;5071980;28;20319;-66
2021/04/06 22:46:46;;;;;;;57.47;4.72;;;1.40;1.00;;;;;;5071804;28;20211;-66
2021/04/06 22:49:13;;;;;;;58.80;4.80;;;1.40;1.00;;;;;;5071891;28;20709;-66
2021/04/06 22:51:40;;;;;;;58.78;4.40;;;1.40;1.00;;;;;;5071357;28;20241;-66
2021/04/06 22:54:06;;;;;;;62.30;5.28;;;1.40;1.00;;;;;;5071591;28;20281;-66
2021/04/06 22:56:32;;;;;;;58.13;5.43;;;1.30;1.00;;;;;;5071716;28;20292;-66
2021/04/06 22:58:59;;;;;;;58.28;4.95;;;1.30;1.00;;;;;;5071880;28;20537;-66
2021/04/06 23:01:25;;;;;;;58.55;5.07;;;1.30;1.00;;;;;;5071857;28;20620;-66
2021/04/06 23:03:52;;;;;;;56.92;4.80;;;1.30;1.00;;;;;;5071660;28;20610;-66
2021/04/06 23:06:19;;;;;;;59.05;5.28;;;1.20;1.00;;;;;;5071469;28;20244;-66
2021/04/06 23:08:46;;;;;;;57.90;4.50;;;1.20;1.00;;;;;;5071359;28;20261;-66
2021/04/06 23:11:13;;;;;;;58.70;5.10;;;1.20;1.00;;;;;;5071572;28;20727;-66
2021/04/06 23:13:40;;;;;;;59.60;5.10;;;1.20;1.00;;;;;;5071364;28;20726;-66
2021/04/06 23:16:07;;;;;;;65.70;5.20;;;1.20;1.00;;;;;;5071683;28;20295;-66
2021/04/06 23:18:34;;;;;;;59.83;5.53;;;1.10;1.00;;;;;;5071765;28;20764;-65
2021/04/06 23:21:01;;;;;;;57.85;4.55;;;1.10;1.00;;;;;;5071426;28;20232;-66
2021/04/06 23:23:27;;;;;;;57.42;4.88;;;1.00;1.00;;;;;;5071229;28;20207;-65
2021/04/06 23:25:54;;;;;;;58.92;5.00;;;1.00;1.00;;;;;;5071591;28;20207;-65
2021/04/06 23:28:21;;;;;;;58.10;5.40;;;1.00;1.00;;;;;;5071497;28;20221;-65
2021/04/06 23:30:47;;;;;;;59.88;5.35;;;0.90;1.00;;;;;;5071471;28;20200;-65
2021/04/06 23:33:16;;;;;;;58.38;5.32;;;0.90;1.00;;;;;;5071235;28;20296;-65
2021/04/06 23:35:43;;;;;;;57.88;5.40;;;0.90;1.00;;;;;;5071131;28;20291;-65
2021/04/06 23:38:12;;;;;;;61.58;5.30;;;0.90;1.00;;;;;;5071457;28;20227;-65
2021/04/06 23:40:39;;;;;;;57.70;5.57;;;0.90;1.00;;;;;;5071422;28;20316;-66
2021/04/06 23:43:07;;;;;;;59.78;6.72;;;0.80;1.00;;;;;;5071352;28;20291;-66
2021/04/06 23:45:33;;;;;;;59.72;6.00;;;0.80;1.00;;;;;;5071263;28;20265;-65
2021/04/06 23:48:00;;;;;;;60.60;6.03;;;0.80;1.00;;;;;;5071232;28;20259;-65
2021/04/06 23:50:26;;;;;;;60.22;5.82;;;0.80;1.00;;;;;;5071534;28;20646;-65
2021/04/06 23:52:53;;;;;;;59.17;6.43;;;0.80;1.00;;;;;;5071302;28;20644;-65
2021/04/06 23:55:20;;;;;;;60.78;5.88;;;0.80;1.00;;;;;;5071401;28;20699;-65
2021/04/06 23:57:46;;;;;;;60.03;6.47;;;0.80;1.00;;;;;;5071326;28;20236;-65
